Time;durP1;ratioP1;P1;durP2;ratioP2;P2;SDS_P1;SDS_P2;PMS_P1;PMS_P2;Temp;Humidity;BMP_temperature;BMP_pressure;BME280_temperature;BME280_humidity;BME280_pressure;Samples;Min_cycle;Max_cycle;Signal;HPM_P1;HPM_P2
2021/07/11 00:03:50;;;;;;;3.60;3.40;;;21.90;38.20;;;;;;10445277;28;20236;-75
2021/07/11 00:08:53;;;;;;;3.30;3.10;;;21.80;39.10;;;;;;10451343;28;20580;-76
2021/07/11 00:14:00;;;;;;;3.60;3.30;;;21.80;38.10;;;;;;10451397;28;20233;-76
2021/07/11 00:19:05;;;;;;;3.73;3.33;;;21.80;38.10;;;;;;10444840;28;20300;-75
2021/07/11 00:24:08;;;;;;;3.30;3.00;;;21.70;38.50;;;;;;10447917;28;20220;-76
2021/07/11 00:29:11;;;;;;;2.70;2.50;;;21.70;38.00;;;;;;10450055;28;20723;-75
2021/07/11 00:34:15;;;;;;;2.57;2.10;;;21.70;38.00;;;;;;10441315;28;20220;-75
2021/07/11 00:39:19;;;;;;;1.90;1.80;;;21.70;38.00;;;;;;10442856;28;20762;-75
2021/07/11 00:44:22;;;;;;;1.70;1.60;;;21.70;37.60;;;;;;10444790;28;20255;-75
2021/07/11 00:49:27;;;;;;;1.90;1.40;;;21.70;37.30;;;;;;10450474;28;20236;-75
2021/07/11 00:54:30;;;;;;;1.40;1.40;;;21.70;37.10;;;;;;10448662;28;20732;-75
2021/07/11 00:59:34;;;;;;;1.60;1.50;;;21.60;37.10;;;;;;10462532;28;20236;-76
2021/07/11 01:04:48;;;;;;;1.33;1.30;;;21.60;37.40;;;;;;10452399;28;20220;-75
2021/07/11 01:09:54;;;;;;;2.00;1.30;;;21.40;37.70;;;;;;10463877;28;20232;-76
2021/07/11 01:15:00;;;;;;;1.40;1.30;;;21.30;37.60;;;;;;10444114;28;20226;-76
2021/07/11 01:20:18;;;;;;;1.57;1.47;;;21.20;37.60;;;;;;10457649;28;20213;-75
2021/07/11 01:25:33;;;;;;;1.73;1.50;;;21.00;38.20;;;;;;10450995;28;20282;-75
2021/07/11 01:30:38;;;;;;;1.57;1.47;;;20.90;39.00;;;;;;10460772;28;20236;-76
2021/07/11 01:35:42;;;;;;;1.50;1.40;;;20.80;38.90;;;;;;10447982;28;20290;-76
2021/07/11 01:40:49;;;;;;;1.73;1.60;;;20.70;39.20;;;;;;10449889;28;20229;-75
2021/07/11 01:45:54;;;;;;;1.33;1.30;;;20.60;40.50;;;;;;10449607;28;20244;-76
2021/07/11 01:50:58;;;;;;;1.47;1.37;;;20.50;39.90;;;;;;10456459;28;20226;-76
2021/07/11 01:56:03;;;;;;;1.20;1.20;;;20.50;39.60;;;;;;10449471;28;20229;-76
2021/07/11 02:01:09;;;;;;;1.50;1.40;;;20.40;40.50;;;;;;10456988;28;20826;-75
2021/07/11 02:06:14;;;;;;;1.40;1.30;;;20.40;40.20;;;;;;10442600;28;20221;-75
2021/07/11 02:11:19;;;;;;;1.50;1.40;;;20.40;40.20;;;;;;10448248;28;20225;-75
2021/07/11 02:16:30;;;;;;;1.60;1.50;;;20.40;40.80;;;;;;10444568;28;20229;-75
2021/07/11 02:21:34;;;;;;;1.60;1.43;;;20.40;41.70;;;;;;10447463;28;20227;-75
2021/07/11 02:26:39;;;;;;;1.73;1.63;;;20.30;40.50;;;;;;10447952;28;20232;-75
2021/07/11 02:31:42;;;;;;;3.00;1.70;;;20.20;41.40;;;;;;10454399;28;20237;-75
2021/07/11 02:36:51;;;;;;;1.60;1.50;;;20.10;41.00;;;;;;10457806;28;20232;-75
2021/07/11 02:42:00;;;;;;;1.60;1.50;;;20.00;42.00;;;;;;10446329;28;20230;-76
2021/07/11 02:47:07;;;;;;;2.10;1.60;;;20.00;41.90;;;;;;10445510;28;20596;-75
2021/07/11 02:52:10;;;;;;;1.83;1.73;;;20.00;41.60;;;;;;10449158;28;20228;-75
2021/07/11 02:57:21;;;;;;;1.50;1.40;;;20.00;41.20;;;;;;10445639;28;20216;-75
2021/07/11 03:02:27;;;;;;;1.60;1.50;;;20.00;42.20;;;;;;10452969;28;20234;-71
2021/07/11 03:07:31;;;;;;;1.67;1.57;;;19.90;42.10;;;;;;10449748;28;20228;-71
2021/07/11 03:12:37;;;;;;;2.00;1.27;;;19.90;41.80;;;;;;10448790;28;20306;-71
2021/07/11 03:17:41;;;;;;;1.50;1.40;;;19.90;42.30;;;;;;10451973;28;20260;-71
2021/07/11 03:22:44;;;;;;;1.40;1.30;;;19.90;41.70;;;;;;10453886;28;20583;-71
2021/07/11 03:27:50;;;;;;;2.60;1.30;;;20.00;41.70;;;;;;10442958;28;20239;-71
2021/07/11 03:32:56;;;;;;;1.23;1.23;;;19.90;42.20;;;;;;10450785;28;20233;-71
2021/07/11 03:38:01;;;;;;;1.27;1.17;;;19.90;42.00;;;;;;10446831;28;20602;-71
2021/07/11 03:43:09;;;;;;;1.87;1.20;;;19.80;41.70;;;;;;10442675;28;20217;-71
2021/07/11 03:48:17;;;;;;;1.10;1.10;;;19.70;42.40;;;;;;10442173;28;20684;-71
2021/07/11 03:53:23;;;;;;;1.43;1.33;;;19.70;42.30;;;;;;10450828;28;20574;-71
2021/07/11 03:58:31;;;;;;;1.20;1.10;;;19.70;42.10;;;;;;10445068;28;20232;-71
2021/07/11 04:03:37;;;;;;;1.60;1.50;;;19.60;42.20;;;;;;10451703;28;20224;-71
2021/07/11 04:08:42;;;;;;;1.10;1.10;;;19.60;42.20;;;;;;10442376;28;20224;-71
2021/07/11 04:13:46;;;;;;;1.37;1.10;;;19.60;42.00;;;;;;10445173;28;20225;-71
2021/07/11 04:18:52;;;;;;;1.13;1.10;;;19.60;42.30;;;;;;10450925;28;20248;-71
2021/07/11 04:23:57;;;;;;;1.03;1.03;;;19.60;42.00;;;;;;10446463;28;20217;-71
2021/07/11 04:29:03;;;;;;;1.00;1.00;;;19.70;42.00;;;;;;10449093;28;20221;-71
2021/07/11 04:34:20;;;;;;;1.13;1.03;;;19.70;42.50;;;;;;10453146;28;20689;-72
2021/07/11 04:39:23;;;;;;;0.97;0.97;;;19.70;42.90;;;;;;10456164;28;20973;-72
2021/07/11 04:44:28;;;;;;;1.80;1.30;;;19.70;42.20;;;;;;10452603;28;20231;-72
2021/07/11 04:49:31;;;;;;;1.27;1.10;;;19.70;42.50;;;;;;10459142;28;20742;-72
2021/07/11 04:54:36;;;;;;;1.10;1.10;;;19.70;42.20;;;;;;10452692;28;20225;-72
2021/07/11 04:59:40;;;;;;;1.40;1.30;;;19.70;42.40;;;;;;10451836;28;20225;-72
2021/07/11 05:04:44;;;;;;;1.40;1.30;;;19.70;42.50;;;;;;10456708;28;20604;-72
2021/07/11 05:09:47;;;;;;;0.90;0.90;;;19.70;42.20;;;;;;10448488;28;20244;-72
2021/07/11 05:14:52;;;;;;;0.97;0.97;;;19.70;42.30;;;;;;10456277;28;20688;-72
2021/07/11 05:19:55;;;;;;;1.00;1.00;;;19.70;42.80;;;;;;10455580;28;20232;-72
2021/07/11 05:24:58;;;;;;;1.30;1.07;;;19.70;42.40;;;;;;10448436;28;20221;-72
2021/07/11 05:30:04;;;;;;;0.93;0.93;;;19.70;42.50;;;;;;10456256;28;20229;-72
2021/07/11 05:35:08;;;;;;;1.10;1.10;;;19.60;43.10;;;;;;10456809;28;20590;-72
2021/07/11 05:40:13;;;;;;;1.13;1.03;;;19.60;42.70;;;;;;10454241;28;20225;-72
2021/07/11 05:45:18;;;;;;;1.60;0.97;;;19.60;42.80;;;;;;10447394;28;20221;-72
2021/07/11 05:50:21;;;;;;;1.63;1.13;;;19.60;43.10;;;;;;10453826;28;20231;-69
2021/07/11 05:55:24;;;;;;;0.90;0.90;;;19.70;42.80;;;;;;10451414;28;20263;-69
2021/07/11 06:00:29;;;;;;;1.50;1.00;;;19.70;42.70;;;;;;10452551;28;20228;-69
2021/07/11 06:05:32;;;;;;;1.10;1.00;;;19.70;43.30;;;;;;10456399;28;20715;-69
2021/07/11 06:10:35;;;;;;;1.00;0.93;;;19.70;43.10;;;;;;10453231;28;20647;-69
2021/07/11 06:15:40;;;;;;;0.90;0.90;;;19.70;43.10;;;;;;10455435;28;20962;-69
2021/07/11 06:20:43;;;;;;;1.13;1.07;;;19.70;43.60;;;;;;10450280;28;20228;-69
2021/07/11 06:25:46;;;;;;;1.10;1.00;;;19.70;43.20;;;;;;10452128;28;20233;-69
2021/07/11 06:30:51;;;;;;;1.80;1.00;;;19.80;43.40;;;;;;10462333;28;20233;-69
2021/07/11 06:35:55;;;;;;;1.20;1.10;;;19.80;43.70;;;;;;10451499;28;20313;-69
2021/07/11 06:40:58;;;;;;;2.20;2.00;;;19.80;43.30;;;;;;10452499;28;20237;-69
2021/07/11 06:46:03;;;;;;;2.73;1.70;;;19.80;43.40;;;;;;10456511;28;20760;-69
2021/07/11 06:51:06;;;;;;;1.70;1.60;;;19.80;44.00;;;;;;10413717;28;20214;-69
2021/07/11 06:56:09;;;;;;;1.80;1.70;;;19.90;43.80;;;;;;10412460;28;20229;-69
2021/07/11 07:01:13;;;;;;;2.80;1.20;;;19.80;43.90;;;;;;10438551;28;20225;-70
2021/07/11 07:06:17;;;;;;;2.67;1.20;;;19.80;44.30;;;;;;10449477;28;20610;-69
2021/07/11 07:11:20;;;;;;;1.40;1.30;;;19.90;44.00;;;;;;10450257;28;20572;-74
2021/07/11 07:16:24;;;;;;;1.00;1.00;;;19.90;43.90;;;;;;10447357;28;20232;-74
2021/07/11 07:21:28;;;;;;;1.20;1.10;;;19.90;44.50;;;;;;10447498;28;20237;-74
2021/07/11 07:26:31;;;;;;;1.43;1.37;;;19.90;44.00;;;;;;10443167;28;20229;-75
2021/07/11 07:31:37;;;;;;;1.60;1.50;;;19.90;44.10;;;;;;10449472;28;20279;-74
2021/07/11 07:36:40;;;;;;;1.20;1.20;;;19.90;44.60;;;;;;10446992;28;20320;-75
2021/07/11 07:41:44;;;;;;;2.70;1.20;;;19.80;44.10;;;;;;10444910;28;20725;-74
2021/07/11 07:46:49;;;;;;;1.47;1.30;;;19.70;44.30;;;;;;10452622;28;20229;-74
2021/07/11 07:51:53;;;;;;;1.40;1.30;;;19.70;45.40;;;;;;10452165;28;20237;-73
2021/07/11 07:56:56;;;;;;;1.50;1.40;;;19.80;44.70;;;;;;10444043;28;20228;-74
2021/07/11 08:02:00;;;;;;;1.50;1.40;;;19.70;44.60;;;;;;10453071;28;20232;-74
2021/07/11 08:07:04;;;;;;;1.40;1.30;;;19.80;45.50;;;;;;10439824;28;20274;-73
2021/07/11 08:12:08;;;;;;;1.77;1.33;;;19.80;45.20;;;;;;10444896;28;20228;-74
2021/07/11 08:17:13;;;;;;;1.20;1.20;;;19.80;45.30;;;;;;10446226;28;20715;-74
2021/07/11 08:22:16;;;;;;;1.53;1.43;;;19.90;45.90;;;;;;10449209;28;20224;-74
2021/07/11 08:27:19;;;;;;;1.73;1.17;;;20.00;45.30;;;;;;10448364;28;20246;-75
2021/07/11 08:32:23;;;;;;;1.50;1.40;;;20.10;45.10;;;;;;10444449;28;20693;-74
2021/07/11 08:37:28;;;;;;;1.70;1.60;;;20.10;45.80;;;;;;10449790;28;20231;-74
2021/07/11 08:42:34;;;;;;;1.37;1.27;;;20.10;45.60;;;;;;10443966;28;20227;-74
2021/07/11 08:47:39;;;;;;;1.40;1.30;;;20.20;46.40;;;;;;10448848;28;20224;-74
2021/07/11 08:52:45;;;;;;;1.47;1.37;;;20.30;46.20;;;;;;10450998;28;20244;-74
2021/07/11 08:57:53;;;;;;;1.30;1.30;;;20.30;45.50;;;;;;10434877;28;20325;-74
2021/07/11 09:03:04;;;;;;;1.43;1.37;;;20.40;46.40;;;;;;10429789;28;20225;-74
2021/07/11 09:08:11;;;;;;;2.30;1.70;;;20.40;46.20;;;;;;10437107;28;20228;-74
2021/07/11 09:13:16;;;;;;;1.60;1.50;;;20.50;46.00;;;;;;10439034;28;20220;-74
2021/07/11 09:18:25;;;;;;;1.67;1.57;;;20.50;45.90;;;;;;10456310;28;20224;-74
2021/07/11 09:23:29;;;;;;;1.90;1.70;;;20.60;46.20;;;;;;10461392;28;20229;-73
2021/07/11 09:28:34;;;;;;;1.40;1.30;;;20.60;45.60;;;;;;10461644;28;20240;-74
2021/07/11 09:33:40;;;;;;;1.30;1.30;;;20.60;46.20;;;;;;10447172;28;20220;-74
2021/07/11 09:38:48;;;;;;;1.53;1.43;;;20.60;45.90;;;;;;10452038;28;20237;-74
2021/07/11 09:43:52;;;;;;;1.70;1.60;;;20.70;46.00;;;;;;10449872;28;20275;-74
2021/07/11 09:48:57;;;;;;;1.80;1.70;;;20.70;45.70;;;;;;10450378;28;20240;-75
2021/07/11 09:54:09;;;;;;;1.63;1.53;;;20.70;46.00;;;;;;10454059;28;20610;-75
2021/07/11 09:59:14;;;;;;;1.67;1.57;;;20.80;47.00;;;;;;10453952;28;20230;-76
2021/07/11 10:04:19;;;;;;;1.83;1.73;;;20.90;45.90;;;;;;10450655;28;20225;-76
2021/07/11 10:09:23;;;;;;;1.67;1.57;;;20.90;45.60;;;;;;10446514;28;20720;-69
2021/07/11 10:14:26;;;;;;;1.40;1.40;;;20.90;45.30;;;;;;10448881;28;20243;-71
2021/07/11 10:19:32;;;;;;;1.80;1.70;;;21.00;45.30;;;;;;10455243;28;20232;-71
2021/07/11 10:24:41;;;;;;;1.70;1.60;;;21.10;45.70;;;;;;10450059;28;20243;-71
2021/07/11 10:29:46;;;;;;;1.90;1.80;;;21.10;45.50;;;;;;10451927;28;20232;-70
2021/07/11 10:34:50;;;;;;;2.20;1.50;;;21.20;45.60;;;;;;10454549;28;20232;-71
2021/07/11 10:40:07;;;;;;;1.33;1.20;;;21.20;45.50;;;;;;10450290;28;20630;-71
2021/07/11 10:45:12;;;;;;;1.80;1.70;;;21.30;45.50;;;;;;10436534;28;20216;-71
2021/07/11 10:50:25;;;;;;;2.23;2.10;;;21.40;45.10;;;;;;10451169;28;20224;-71
2021/07/11 10:55:37;;;;;;;1.63;1.53;;;21.50;45.70;;;;;;10447924;28;20252;-71
2021/07/11 11:00:40;;;;;;;1.60;1.50;;;21.70;46.00;;;;;;10454122;28;20227;-71
2021/07/11 11:05:46;;;;;;;1.40;1.40;;;21.90;45.40;;;;;;10442935;28;20225;-71
2021/07/11 11:10:52;;;;;;;3.17;1.60;;;22.10;45.20;;;;;;10445990;28;20225;-71
2021/07/11 11:15:56;;;;;;;2.33;1.53;;;22.20;44.20;;;;;;10452489;28;20260;-74
2021/07/11 11:21:03;;;;;;;2.30;1.70;;;22.30;43.20;;;;;;10444593;28;20232;-74
2021/07/11 11:26:08;;;;;;;1.50;1.40;;;22.40;43.30;;;;;;10444077;28;20221;-74
2021/07/11 11:31:14;;;;;;;1.83;1.73;;;22.50;43.50;;;;;;10445939;28;20235;-75
2021/07/11 11:36:21;;;;;;;1.93;1.80;;;22.70;43.40;;;;;;10454485;28;20236;-74
2021/07/11 11:41:25;;;;;;;1.70;1.60;;;22.80;42.80;;;;;;10446687;28;20229;-74
2021/07/11 11:46:30;;;;;;;1.80;1.70;;;22.90;43.30;;;;;;10447972;28;20220;-74
2021/07/11 11:51:37;;;;;;;1.80;1.70;;;23.00;42.80;;;;;;10444520;28;20312;-75
2021/07/11 11:56:42;;;;;;;1.90;1.80;;;23.20;42.70;;;;;;10443395;28;20235;-74
2021/07/11 12:01:45;;;;;;;1.57;1.50;;;23.30;42.50;;;;;;10443205;28;20233;-74
2021/07/11 12:06:52;;;;;;;1.63;1.53;;;23.30;42.30;;;;;;10449648;28;20310;-74
2021/07/11 12:11:59;;;;;;;1.60;1.50;;;23.40;42.10;;;;;;10438373;28;20240;-70
2021/07/11 12:17:08;;;;;;;1.70;1.60;;;23.50;42.20;;;;;;10451181;28;20231;-71
2021/07/11 12:22:17;;;;;;;2.17;1.80;;;23.80;42.60;;;;;;10448041;28;20290;-71
2021/07/11 12:27:21;;;;;;;1.80;1.70;;;23.90;41.50;;;;;;10443523;28;20597;-71
2021/07/11 12:32:25;;;;;;;1.67;1.57;;;24.00;41.30;;;;;;10450230;28;20232;-71
2021/07/11 12:37:29;;;;;;;1.60;1.50;;;24.00;41.10;;;;;;10447154;28;20224;-71
2021/07/11 12:42:32;;;;;;;1.90;1.80;;;24.00;40.10;;;;;;10441745;28;20226;-71
2021/07/11 12:47:36;;;;;;;1.90;1.80;;;24.10;41.00;;;;;;10447088;28;20244;-71
2021/07/11 12:52:41;;;;;;;1.90;1.80;;;24.10;40.80;;;;;;10445041;28;20221;-71
2021/07/11 12:57:44;;;;;;;1.63;1.53;;;24.20;40.20;;;;;;10453961;28;20220;-74
2021/07/11 13:02:57;;;;;;;1.67;1.60;;;24.40;40.40;;;;;;10456212;28;20224;-74
2021/07/11 13:08:08;;;;;;;2.67;1.50;;;24.50;40.30;;;;;;10457305;28;20239;-74
2021/07/11 13:13:13;;;;;;;1.80;1.57;;;24.60;39.50;;;;;;10457405;28;20235;-74
2021/07/11 13:18:16;;;;;;;1.70;1.60;;;24.80;39.50;;;;;;10451618;28;20872;-74
2021/07/11 13:23:21;;;;;;;1.77;1.67;;;24.90;39.60;;;;;;10452667;28;20224;-75
2021/07/11 13:28:27;;;;;;;1.50;1.40;;;25.00;39.30;;;;;;10454844;28;20233;-75
2021/07/11 13:33:30;;;;;;;1.77;1.67;;;25.10;39.60;;;;;;10454400;28;20239;-74
2021/07/11 13:38:35;;;;;;;2.83;1.80;;;25.20;38.90;;;;;;10458931;28;20239;-74
2021/07/11 13:43:38;;;;;;;2.93;1.90;;;25.20;37.80;;;;;;10455610;28;20247;-74
2021/07/11 13:48:41;;;;;;;1.60;1.50;;;25.20;38.40;;;;;;10452821;28;20237;-75
2021/07/11 13:53:46;;;;;;;1.70;1.53;;;25.10;38.20;;;;;;10459492;28;20225;-74
2021/07/11 13:58:49;;;;;;;1.67;1.57;;;25.00;37.60;;;;;;10453546;28;20247;-74
2021/07/11 14:03:52;;;;;;;1.70;1.60;;;24.90;37.70;;;;;;10450956;28;20781;-75
2021/07/11 14:08:57;;;;;;;1.53;1.43;;;24.90;38.00;;;;;;10452480;28;20229;-75
2021/07/11 14:14:00;;;;;;;1.63;1.53;;;24.80;37.80;;;;;;10452527;28;20231;-74
2021/07/11 14:19:03;;;;;;;2.17;1.70;;;24.70;38.70;;;;;;10453042;28;20228;-74
2021/07/11 14:24:09;;;;;;;1.70;1.60;;;24.70;38.80;;;;;;10453897;28;20224;-74
2021/07/11 14:29:27;;;;;;;3.03;1.63;;;24.60;38.50;;;;;;10456028;28;20235;-74
2021/07/11 14:34:31;;;;;;;1.50;1.40;;;24.60;39.10;;;;;;10448632;28;20232;-74
2021/07/11 14:39:52;;;;;;;1.37;1.37;;;24.50;38.60;;;;;;10448556;28;20601;-76
2021/07/11 14:44:55;;;;;;;1.37;1.27;;;24.30;38.30;;;;;;10448345;28;20229;-76
2021/07/11 14:49:59;;;;;;;1.67;1.30;;;24.30;38.60;;;;;;10446128;28;20329;-77
2021/07/11 14:55:04;;;;;;;1.43;1.30;;;24.10;38.60;;;;;;10440538;28;20228;-75
2021/07/11 15:00:09;;;;;;;1.53;1.43;;;24.00;39.10;;;;;;10438930;28;20705;-77
2021/07/11 15:05:13;;;;;;;1.50;1.40;;;23.90;39.30;;;;;;10444863;28;20248;-77
2021/07/11 15:10:17;;;;;;;1.60;1.50;;;23.60;39.50;;;;;;10451423;28;20486;-77
2021/07/11 15:15:20;;;;;;;1.40;1.30;;;23.50;39.60;;;;;;10434019;28;20229;-77
2021/07/11 15:20:24;;;;;;;1.43;1.33;;;23.40;39.50;;;;;;10429025;28;20224;-77
2021/07/11 15:25:28;;;;;;;1.40;1.30;;;23.30;39.40;;;;;;10440591;28;20237;-77
2021/07/11 15:30:32;;;;;;;1.17;1.17;;;23.20;39.40;;;;;;10437484;28;20235;-77
2021/07/11 15:35:36;;;;;;;1.37;1.30;;;23.20;39.70;;;;;;10437056;28;20232;-77
2021/07/11 15:40:43;;;;;;;1.50;1.40;;;23.10;39.60;;;;;;10439870;28;20312;-77
2021/07/11 15:45:47;;;;;;;1.40;1.30;;;23.10;40.40;;;;;;10439157;28;20912;-78
2021/07/11 15:50:52;;;;;;;1.40;1.30;;;23.10;40.70;;;;;;10452549;28;20234;-78
2021/07/11 15:55:57;;;;;;;1.20;1.20;;;23.10;40.50;;;;;;10448682;28;20236;-78
2021/07/11 16:01:00;;;;;;;1.43;1.40;;;23.20;40.70;;;;;;10438415;28;20631;-77
2021/07/11 16:06:03;;;;;;;1.40;1.30;;;23.30;40.60;;;;;;10444764;28;20217;-75
2021/07/11 16:11:08;;;;;;;1.10;1.10;;;23.50;40.60;;;;;;10424442;28;20834;-77
2021/07/11 16:16:11;;;;;;;1.40;1.30;;;23.60;39.70;;;;;;10422496;28;20230;-77
2021/07/11 16:21:15;;;;;;;3.67;1.30;;;23.80;39.90;;;;;;10447180;28;20253;-77
2021/07/11 16:26:19;;;;;;;1.30;1.30;;;23.90;39.90;;;;;;10439895;28;20748;-77
2021/07/11 16:31:23;;;;;;;1.30;1.20;;;24.10;39.40;;;;;;10437502;28;20236;-79
2021/07/11 16:36:27;;;;;;;1.30;1.20;;;24.20;40.20;;;;;;10429004;28;20229;-78
2021/07/11 16:41:32;;;;;;;1.10;1.10;;;24.30;38.70;;;;;;10412291;28;20275;-78
2021/07/11 16:46:36;;;;;;;1.10;1.10;;;24.40;37.50;;;;;;10436326;28;20291;-72
2021/07/11 16:51:40;;;;;;;1.17;1.17;;;24.40;38.20;;;;;;10450872;28;20224;-72
2021/07/11 16:56:44;;;;;;;1.57;1.20;;;24.40;38.00;;;;;;10447097;28;20241;-72
2021/07/11 17:01:47;;;;;;;0.90;0.90;;;24.40;37.30;;;;;;10445585;28;20228;-72
2021/07/11 17:06:51;;;;;;;1.33;1.20;;;24.30;37.50;;;;;;10449384;28;20704;-72
2021/07/11 17:11:55;;;;;;;1.10;1.10;;;24.30;37.50;;;;;;10444213;28;20232;-72
2021/07/11 17:16:58;;;;;;;1.10;1.10;;;24.30;36.70;;;;;;10439434;28;20321;-78
2021/07/11 17:22:02;;;;;;;0.90;0.90;;;24.20;36.90;;;;;;10431096;28;20226;-74
2021/07/11 17:27:06;;;;;;;1.13;1.10;;;24.10;37.10;;;;;;10421986;28;20217;-78
2021/07/11 17:32:09;;;;;;;1.07;1.00;;;24.10;36.60;;;;;;10434239;28;20225;-78
2021/07/11 17:37:13;;;;;;;1.20;1.10;;;24.10;37.40;;;;;;10435634;28;20223;-78
2021/07/11 17:42:19;;;;;;;1.00;1.00;;;24.10;37.20;;;;;;10458175;28;20588;-78
2021/07/11 17:47:22;;;;;;;0.80;0.80;;;24.10;36.90;;;;;;10433579;28;20237;-78
2021/07/11 17:52:25;;;;;;;1.00;1.00;;;24.10;37.50;;;;;;10449505;28;20954;-78
2021/07/11 17:57:30;;;;;;;0.83;0.83;;;24.10;37.20;;;;;;10454614;28;20224;-78
2021/07/11 18:02:33;;;;;;;1.00;0.90;;;24.10;36.80;;;;;;10454193;28;20233;-78
2021/07/11 18:07:36;;;;;;;1.03;1.00;;;24.10;37.10;;;;;;10455713;28;20220;-78
2021/07/11 18:12:41;;;;;;;1.10;1.10;;;24.10;37.30;;;;;;10456513;28;20237;-78
2021/07/11 18:17:44;;;;;;;1.00;1.00;;;24.20;36.90;;;;;;10456991;28;20236;-77
2021/07/11 18:22:48;;;;;;;0.77;0.77;;;24.30;36.90;;;;;;10452886;28;20231;-77
2021/07/11 18:27:52;;;;;;;1.00;1.00;;;24.40;36.60;;;;;;10452340;28;20239;-78
2021/07/11 18:32:55;;;;;;;0.80;0.80;;;24.40;36.90;;;;;;10468661;28;20596;-78
2021/07/11 18:37:59;;;;;;;0.90;0.90;;;24.40;37.10;;;;;;10430226;28;20252;-78
2021/07/11 18:43:04;;;;;;;1.10;1.10;;;24.40;37.00;;;;;;10441097;28;20221;-74
2021/07/11 18:48:07;;;;;;;1.27;0.90;;;24.40;36.80;;;;;;10446594;28;20228;-75
2021/07/11 18:53:12;;;;;;;1.00;1.00;;;24.30;36.80;;;;;;10448057;28;20221;-75
2021/07/11 18:58:18;;;;;;;1.47;1.30;;;24.30;37.00;;;;;;10454059;28;20232;-75
2021/07/11 19:03:21;;;;;;;1.10;1.10;;;24.20;36.90;;;;;;10444401;28;20221;-69
2021/07/11 19:08:24;;;;;;;1.10;1.10;;;24.10;37.00;;;;;;10445359;28;20229;-69
2021/07/11 19:13:29;;;;;;;1.10;1.10;;;24.00;37.30;;;;;;10455120;28;20224;-69
2021/07/11 19:18:32;;;;;;;0.90;0.90;;;23.90;37.30;;;;;;10450658;28;20235;-69
2021/07/11 19:23:35;;;;;;;1.10;1.10;;;23.80;37.20;;;;;;10424521;28;20614;-69
2021/07/11 19:28:40;;;;;;;1.03;0.90;;;23.70;37.30;;;;;;10432946;28;20247;-69
2021/07/11 19:33:43;;;;;;;1.40;0.87;;;23.60;37.20;;;;;;10431382;28;20240;-69
2021/07/11 19:38:46;;;;;;;1.43;1.00;;;23.50;37.30;;;;;;10432900;28;20240;-69
2021/07/11 19:43:51;;;;;;;0.97;0.97;;;23.30;37.10;;;;;;10431898;28;20336;-69
2021/07/11 19:48:54;;;;;;;1.00;1.00;;;23.20;37.30;;;;;;10428271;28;20604;-69
2021/07/11 19:53:58;;;;;;;1.00;1.00;;;23.10;37.50;;;;;;10425262;28;20267;-69
2021/07/11 19:59:02;;;;;;;1.17;1.17;;;22.90;37.60;;;;;;10432718;28;20739;-70
2021/07/11 20:04:06;;;;;;;5.53;1.20;;;22.80;37.50;;;;;;10433258;28;20595;-69
2021/07/11 20:09:10;;;;;;;1.30;1.10;;;22.70;37.50;;;;;;10425344;28;20220;-69
2021/07/11 20:14:16;;;;;;;1.20;1.10;;;22.60;37.70;;;;;;10430605;28;20229;-69
2021/07/11 20:19:20;;;;;;;1.47;1.20;;;22.50;37.80;;;;;;10431255;28;20267;-69
2021/07/11 20:24:23;;;;;;;2.03;1.20;;;22.40;37.90;;;;;;10433765;28;20225;-69
2021/07/11 20:29:28;;;;;;;2.67;1.20;;;22.30;38.30;;;;;;10430991;28;20605;-69
2021/07/11 20:34:32;;;;;;;1.20;1.10;;;22.30;38.50;;;;;;10425559;28;20352;-70
2021/07/11 20:39:35;;;;;;;1.50;1.40;;;22.20;38.10;;;;;;10430338;28;20236;-69
2021/07/11 20:44:41;;;;;;;1.57;1.33;;;22.10;38.40;;;;;;10432134;28;20228;-69
2021/07/11 20:49:44;;;;;;;1.43;1.20;;;22.00;38.30;;;;;;10430974;28;20232;-69
2021/07/11 20:54:47;;;;;;;1.93;1.67;;;21.90;38.90;;;;;;10430307;28;20611;-69
2021/07/11 20:59:52;;;;;;;2.90;1.87;;;21.70;38.00;;;;;;10429142;28;20238;-69
2021/07/11 21:04:55;;;;;;;2.00;1.50;;;21.60;37.90;;;;;;10435329;28;20225;-69
2021/07/11 21:09:58;;;;;;;1.77;1.40;;;21.50;38.10;;;;;;10428365;28;20240;-69
2021/07/11 21:15:04;;;;;;;1.40;1.30;;;21.40;38.30;;;;;;10440262;28;20240;-69
2021/07/11 21:20:08;;;;;;;2.30;1.50;;;21.40;38.60;;;;;;10436817;28;20335;-69
2021/07/11 21:25:12;;;;;;;1.53;1.30;;;21.40;38.00;;;;;;10439790;28;20231;-69
2021/07/11 21:30:19;;;;;;;1.70;1.60;;;21.30;38.20;;;;;;10438911;28;20229;-69
2021/07/11 21:35:22;;;;;;;1.83;1.30;;;21.20;38.50;;;;;;10437952;28;20244;-69
2021/07/11 21:40:27;;;;;;;1.50;1.40;;;21.20;38.60;;;;;;10438466;28;20272;-69
2021/07/11 21:45:31;;;;;;;3.27;1.60;;;21.10;38.60;;;;;;10434760;28;20232;-69
2021/07/11 21:50:35;;;;;;;1.70;1.30;;;21.10;38.60;;;;;;10441622;28;20236;-69
2021/07/11 21:55:38;;;;;;;1.63;1.43;;;21.00;38.40;;;;;;10447624;28;20258;-69
2021/07/11 22:00:43;;;;;;;3.27;1.50;;;20.90;38.70;;;;;;10450486;28;20232;-69
2021/07/11 22:05:46;;;;;;;2.03;1.20;;;20.80;38.90;;;;;;10450604;28;20800;-69
2021/07/11 22:10:50;;;;;;;1.47;1.37;;;20.70;38.70;;;;;;10450245;28;20232;-69
2021/07/11 22:15:54;;;;;;;1.80;1.40;;;20.70;38.60;;;;;;10451106;28;20229;-69
2021/07/11 22:20:58;;;;;;;1.60;1.50;;;20.60;38.80;;;;;;10449780;28;20388;-69
2021/07/11 22:26:01;;;;;;;3.63;1.77;;;20.40;38.70;;;;;;10454050;28;20718;-69
2021/07/11 22:31:06;;;;;;;2.00;1.80;;;20.40;39.00;;;;;;10451246;28;20244;-69
2021/07/11 22:36:09;;;;;;;2.37;1.80;;;20.20;39.00;;;;;;10446942;28;20233;-69
2021/07/11 22:41:12;;;;;;;2.43;1.90;;;20.00;38.90;;;;;;10453737;28;20258;-69
2021/07/11 22:46:17;;;;;;;2.33;1.70;;;20.00;39.20;;;;;;10442653;28;20243;-69
2021/07/11 22:51:20;;;;;;;1.87;1.27;;;19.90;40.30;;;;;;10451827;28;20313;-69
2021/07/11 22:56:24;;;;;;;1.50;1.30;;;19.90;39.50;;;;;;10453998;28;20256;-69
2021/07/11 23:01:29;;;;;;;2.03;1.53;;;19.90;39.60;;;;;;10449347;28;20233;-69
2021/07/11 23:06:33;;;;;;;1.37;1.20;;;19.80;39.70;;;;;;10449327;28;20805;-69
2021/07/11 23:11:37;;;;;;;2.27;1.37;;;19.80;39.60;;;;;;10440693;28;20243;-69
2021/07/11 23:16:41;;;;;;;1.60;1.40;;;19.80;39.50;;;;;;10446319;28;20236;-69
2021/07/11 23:21:44;;;;;;;1.30;1.20;;;19.80;39.50;;;;;;10451033;28;20236;-69
2021/07/11 23:26:49;;;;;;;1.23;1.13;;;19.80;39.40;;;;;;10446070;28;20225;-69
2021/07/11 23:31:53;;;;;;;2.57;1.40;;;19.70;39.40;;;;;;10447757;28;20240;-69
2021/07/11 23:36:56;;;;;;;2.63;1.03;;;19.70;39.60;;;;;;10454806;28;20728;-69
2021/07/11 23:41:59;;;;;;;1.60;1.50;;;19.70;39.50;;;;;;10445597;28;20240;-69
2021/07/11 23:47:05;;;;;;;1.43;1.33;;;19.60;39.40;;;;;;10448901;28;20236;-69
2021/07/11 23:52:09;;;;;;;1.43;1.33;;;19.50;39.40;;;;;;10447768;28;20312;-69
2021/07/11 23:57:12;;;;;;;1.97;1.50;;;19.50;39.30;;;;;;10439394;28;20225;-69
